sensor_id;sensor_type;location;lat;lon;timestamp;temperature;humidity
47162;DHT22;32921;53.256;8.198;2023-02-28T00:00:28;2.90;99.90
47162;DHT22;32921;53.256;8.198;2023-02-28T00:02:53;3.10;99.90
47162;DHT22;32921;53.256;8.198;2023-02-28T00:05:20;3.10;99.90
47162;DHT22;32921;53.256;8.198;2023-02-28T00:07:46;3.20;99.90
47162;DHT22;32921;53.256;8.198;2023-02-28T00:10:15;3.10;99.90
47162;DHT22;32921;53.256;8.198;2023-02-28T00:12:44;3.00;99.90
47162;DHT22;32921;53.256;8.198;2023-02-28T00:15:10;3.00;99.90
47162;DHT22;32921;53.256;8.198;2023-02-28T00:17:37;2.90;99.90
47162;DHT22;32921;53.256;8.198;2023-02-28T00:20:04;2.90;99.90
47162;DHT22;32921;53.256;8.198;2023-02-28T00:22:31;2.80;99.90
47162;DHT22;32921;53.256;8.198;2023-02-28T00:24:57;2.80;99.90
47162;DHT22;32921;53.256;8.198;2023-02-28T00:27:22;2.70;99.90
47162;DHT22;32921;53.256;8.198;2023-02-28T00:29:48;2.70;99.90
47162;DHT22;32921;53.256;8.198;2023-02-28T00:32:13;2.70;99.90
47162;DHT22;32921;53.256;8.198;2023-02-28T00:34:39;2.60;99.90
47162;DHT22;32921;53.256;8.198;2023-02-28T00:37:06;2.80;99.90
47162;DHT22;32921;53.256;8.198;2023-02-28T00:39:34;3.00;99.90
47162;DHT22;32921;53.256;8.198;2023-02-28T00:41:59;2.90;99.90
47162;DHT22;32921;53.256;8.198;2023-02-28T00:44:25;2.90;99.90
47162;DHT22;32921;53.256;8.198;2023-02-28T00:46:51;3.00;99.90
47162;DHT22;32921;53.256;8.198;2023-02-28T00:49:17;2.90;99.90
47162;DHT22;32921;53.256;8.198;2023-02-28T00:51:43;2.90;99.90
47162;DHT22;32921;53.256;8.198;2023-02-28T00:54:08;2.90;99.90
47162;DHT22;32921;53.256;8.198;2023-02-28T00:56:34;2.80;99.90
47162;DHT22;32921;53.256;8.198;2023-02-28T00:58:59;2.80;99.90
47162;DHT22;32921;53.256;8.198;2023-02-28T01:01:25;2.90;99.90
47162;DHT22;32921;53.256;8.198;2023-02-28T01:03:50;3.00;99.90
47162;DHT22;32921;53.256;8.198;2023-02-28T01:06:16;3.10;99.90
47162;DHT22;32921;53.256;8.198;2023-02-28T01:08:41;3.20;99.90
47162;DHT22;32921;53.256;8.198;2023-02-28T01:11:11;3.10;99.90
47162;DHT22;32921;53.256;8.198;2023-02-28T01:13:37;3.00;99.90
47162;DHT22;32921;53.256;8.198;2023-02-28T01:16:03;2.90;99.90
47162;DHT22;32921;53.256;8.198;2023-02-28T01:18:28;2.80;99.90
47162;DHT22;32921;53.256;8.198;2023-02-28T01:20:54;2.80;99.90
47162;DHT22;32921;53.256;8.198;2023-02-28T01:23:21;2.80;99.90
47162;DHT22;32921;53.256;8.198;2023-02-28T01:25:49;2.90;99.90
47162;DHT22;32921;53.256;8.198;2023-02-28T01:28:14;2.90;99.90
47162;DHT22;32921;53.256;8.198;2023-02-28T01:30:40;3.10;99.90
47162;DHT22;32921;53.256;8.198;2023-02-28T01:33:06;3.20;99.90
47162;DHT22;32921;53.256;8.198;2023-02-28T01:35:35;3.20;99.90
47162;DHT22;32921;53.256;8.198;2023-02-28T01:38:01;3.20;99.90
47162;DHT22;32921;53.256;8.198;2023-02-28T01:40:27;3.20;99.90
47162;DHT22;32921;53.256;8.198;2023-02-28T01:42:53;3.30;99.90
47162;DHT22;32921;53.256;8.198;2023-02-28T01:45:27;3.30;99.90
47162;DHT22;32921;53.256;8.198;2023-02-28T01:48:02;3.40;99.90
47162;DHT22;32921;53.256;8.198;2023-02-28T01:50:33;3.40;99.90
47162;DHT22;32921;53.256;8.198;2023-02-28T01:53:02;3.40;99.90
47162;DHT22;32921;53.256;8.198;2023-02-28T01:55:30;3.30;99.90
47162;DHT22;32921;53.256;8.198;2023-02-28T01:57:59;3.30;99.90
47162;DHT22;32921;53.256;8.198;2023-02-28T02:00:34;3.20;99.90
47162;DHT22;32921;53.256;8.198;2023-02-28T02:03:08;3.20;99.90
47162;DHT22;32921;53.256;8.198;2023-02-28T02:05:37;3.10;99.90
47162;DHT22;32921;53.256;8.198;2023-02-28T02:08:09;3.20;99.90
47162;DHT22;32921;53.256;8.198;2023-02-28T02:10:43;3.10;99.90
47162;DHT22;32921;53.256;8.198;2023-02-28T02:13:21;3.20;99.90
47162;DHT22;32921;53.256;8.198;2023-02-28T02:16:14;3.10;99.90
47162;DHT22;32921;53.256;8.198;2023-02-28T02:18:53;3.00;99.90
47162;DHT22;32921;53.256;8.198;2023-02-28T02:27:39;3.00;99.90
47162;DHT22;32921;53.256;8.198;2023-02-28T02:30:31;3.00;99.90
47162;DHT22;32921;53.256;8.198;2023-02-28T02:36:21;2.80;99.90
47162;DHT22;32921;53.256;8.198;2023-02-28T02:39:13;2.90;99.90
47162;DHT22;32921;53.256;8.198;2023-02-28T02:41:53;2.90;99.90
47162;DHT22;32921;53.256;8.198;2023-02-28T02:44:43;2.90;99.90
47162;DHT22;32921;53.256;8.198;2023-02-28T02:47:16;2.80;99.90
47162;DHT22;32921;53.256;8.198;2023-02-28T02:49:49;2.70;99.90
47162;DHT22;32921;53.256;8.198;2023-02-28T02:52:20;2.70;99.90
47162;DHT22;32921;53.256;8.198;2023-02-28T02:54:48;2.70;99.90
47162;DHT22;32921;53.256;8.198;2023-02-28T02:57:21;2.90;99.90
47162;DHT22;32921;53.256;8.198;2023-02-28T02:59:50;3.00;99.90
47162;DHT22;32921;53.256;8.198;2023-02-28T03:02:17;2.90;99.90
47162;DHT22;32921;53.256;8.198;2023-02-28T03:04:48;2.70;99.90
47162;DHT22;32921;53.256;8.198;2023-02-28T03:07:15;2.60;99.90
47162;DHT22;32921;53.256;8.198;2023-02-28T03:09:49;2.70;99.90
47162;DHT22;32921;53.256;8.198;2023-02-28T03:12:15;2.70;99.90
47162;DHT22;32921;53.256;8.198;2023-02-28T03:14:51;2.70;99.90
47162;DHT22;32921;53.256;8.198;2023-02-28T03:23:01;2.70;99.90
47162;DHT22;32921;53.256;8.198;2023-02-28T03:26:08;2.70;99.90
47162;DHT22;32921;53.256;8.198;2023-02-28T03:29:06;2.90;99.90
47162;DHT22;32921;53.256;8.198;2023-02-28T03:31:45;2.80;99.90
47162;DHT22;32921;53.256;8.198;2023-02-28T03:34:19;2.90;99.90
47162;DHT22;32921;53.256;8.198;2023-02-28T03:36:55;2.90;99.90
47162;DHT22;32921;53.256;8.198;2023-02-28T03:39:28;3.00;99.90
47162;DHT22;32921;53.256;8.198;2023-02-28T03:42:23;3.10;99.90
47162;DHT22;32921;53.256;8.198;2023-02-28T03:44:54;3.10;99.90
47162;DHT22;32921;53.256;8.198;2023-02-28T03:47:43;3.10;99.90
47162;DHT22;32921;53.256;8.198;2023-02-28T03:50:15;3.10;99.90
47162;DHT22;32921;53.256;8.198;2023-02-28T03:53:02;3.10;99.90
47162;DHT22;32921;53.256;8.198;2023-02-28T03:55:33;3.00;99.90
47162;DHT22;32921;53.256;8.198;2023-02-28T03:58:23;3.10;99.90
47162;DHT22;32921;53.256;8.198;2023-02-28T04:00:55;3.00;99.90
47162;DHT22;32921;53.256;8.198;2023-02-28T04:03:22;3.00;99.90
47162;DHT22;32921;53.256;8.198;2023-02-28T04:05:53;3.10;99.90
47162;DHT22;32921;53.256;8.198;2023-02-28T04:08:20;3.00;99.90
47162;DHT22;32921;53.256;8.198;2023-02-28T04:11:36;3.00;99.90
47162;DHT22;32921;53.256;8.198;2023-02-28T04:13:35;3.10;99.90
47162;DHT22;32921;53.256;8.198;2023-02-28T04:16:00;3.10;99.90
47162;DHT22;32921;53.256;8.198;2023-02-28T04:18:26;3.00;99.90
47162;DHT22;32921;53.256;8.198;2023-02-28T04:20:52;3.00;99.90
47162;DHT22;32921;53.256;8.198;2023-02-28T04:23:17;2.90;99.90
47162;DHT22;32921;53.256;8.198;2023-02-28T04:25:43;2.70;99.90
47162;DHT22;32921;53.256;8.198;2023-02-28T04:28:08;2.70;99.90
47162;DHT22;32921;53.256;8.198;2023-02-28T04:30:35;2.70;99.90
47162;DHT22;32921;53.256;8.198;2023-02-28T04:33:00;2.60;99.90
47162;DHT22;32921;53.256;8.198;2023-02-28T04:35:26;2.50;99.90
47162;DHT22;32921;53.256;8.198;2023-02-28T04:37:51;2.50;99.90
47162;DHT22;32921;53.256;8.198;2023-02-28T04:40:17;2.70;99.90
47162;DHT22;32921;53.256;8.198;2023-02-28T04:42:42;2.80;99.90
47162;DHT22;32921;53.256;8.198;2023-02-28T04:45:08;2.80;99.90
47162;DHT22;32921;53.256;8.198;2023-02-28T04:47:36;2.80;99.90
47162;DHT22;32921;53.256;8.198;2023-02-28T04:50:01;2.80;99.90
47162;DHT22;32921;53.256;8.198;2023-02-28T04:52:27;2.80;99.90
47162;DHT22;32921;53.256;8.198;2023-02-28T04:54:53;2.90;99.90
47162;DHT22;32921;53.256;8.198;2023-02-28T04:57:18;2.90;99.90
47162;DHT22;32921;53.256;8.198;2023-02-28T04:59:44;2.90;99.90
47162;DHT22;32921;53.256;8.198;2023-02-28T05:02:10;2.90;99.90
47162;DHT22;32921;53.256;8.198;2023-02-28T05:04:35;2.90;99.90
47162;DHT22;32921;53.256;8.198;2023-02-28T05:07:02;2.80;99.90
47162;DHT22;32921;53.256;8.198;2023-02-28T05:09:28;2.70;99.90
47162;DHT22;32921;53.256;8.198;2023-02-28T05:11:54;2.70;99.90
47162;DHT22;32921;53.256;8.198;2023-02-28T05:14:20;2.70;99.90
47162;DHT22;32921;53.256;8.198;2023-02-28T05:16:46;2.70;99.90
47162;DHT22;32921;53.256;8.198;2023-02-28T05:19:11;2.60;99.90
47162;DHT22;32921;53.256;8.198;2023-02-28T05:21:48;2.50;99.90
47162;DHT22;32921;53.256;8.198;2023-02-28T05:24:14;2.30;99.90
47162;DHT22;32921;53.256;8.198;2023-02-28T05:26:41;2.30;99.90
47162;DHT22;32921;53.256;8.198;2023-02-28T05:29:08;2.20;99.90
47162;DHT22;32921;53.256;8.198;2023-02-28T05:31:35;2.10;99.90
47162;DHT22;32921;53.256;8.198;2023-02-28T05:34:01;1.90;99.90
47162;DHT22;32921;53.256;8.198;2023-02-28T05:36:30;1.70;99.90
47162;DHT22;32921;53.256;8.198;2023-02-28T05:38:55;1.80;99.90
47162;DHT22;32921;53.256;8.198;2023-02-28T05:41:21;1.70;99.90
47162;DHT22;32921;53.256;8.198;2023-02-28T05:43:47;1.70;99.90
47162;DHT22;32921;53.256;8.198;2023-02-28T05:46:13;1.70;99.90
47162;DHT22;32921;53.256;8.198;2023-02-28T05:48:40;1.60;99.90
47162;DHT22;32921;53.256;8.198;2023-02-28T05:51:07;1.60;99.90
47162;DHT22;32921;53.256;8.198;2023-02-28T05:53:33;1.60;99.90
47162;DHT22;32921;53.256;8.198;2023-02-28T05:55:59;1.80;99.90
47162;DHT22;32921;53.256;8.198;2023-02-28T05:58:25;2.00;99.90
47162;DHT22;32921;53.256;8.198;2023-02-28T06:00:54;2.00;99.90
47162;DHT22;32921;53.256;8.198;2023-02-28T06:03:20;1.90;99.90
47162;DHT22;32921;53.256;8.198;2023-02-28T06:05:46;1.80;99.90
47162;DHT22;32921;53.256;8.198;2023-02-28T06:08:11;1.70;99.90
47162;DHT22;32921;53.256;8.198;2023-02-28T06:10:37;1.60;99.90
47162;DHT22;32921;53.256;8.198;2023-02-28T06:13:04;1.70;99.90
47162;DHT22;32921;53.256;8.198;2023-02-28T06:15:30;1.90;99.90
47162;DHT22;32921;53.256;8.198;2023-02-28T06:17:56;2.10;99.90
47162;DHT22;32921;53.256;8.198;2023-02-28T06:20:23;2.20;99.90
47162;DHT22;32921;53.256;8.198;2023-02-28T06:22:49;2.30;99.90
47162;DHT22;32921;53.256;8.198;2023-02-28T06:25:16;2.30;99.90
47162;DHT22;32921;53.256;8.198;2023-02-28T06:27:42;2.30;99.90
47162;DHT22;32921;53.256;8.198;2023-02-28T06:30:10;2.20;99.90
47162;DHT22;32921;53.256;8.198;2023-02-28T06:32:36;2.00;99.90
47162;DHT22;32921;53.256;8.198;2023-02-28T06:35:02;1.90;99.90
47162;DHT22;32921;53.256;8.198;2023-02-28T06:37:28;2.10;99.90
47162;DHT22;32921;53.256;8.198;2023-02-28T06:39:54;2.20;99.90
47162;DHT22;32921;53.256;8.198;2023-02-28T06:42:22;2.20;99.90
47162;DHT22;32921;53.256;8.198;2023-02-28T06:44:50;2.30;99.90
47162;DHT22;32921;53.256;8.198;2023-02-28T06:47:16;2.30;99.90
47162;DHT22;32921;53.256;8.198;2023-02-28T06:49:41;2.40;99.90
47162;DHT22;32921;53.256;8.198;2023-02-28T06:52:07;2.30;99.90
47162;DHT22;32921;53.256;8.198;2023-02-28T06:54:34;2.20;99.90
47162;DHT22;32921;53.256;8.198;2023-02-28T06:56:59;2.10;99.90
47162;DHT22;32921;53.256;8.198;2023-02-28T06:59:25;2.10;99.90
47162;DHT22;32921;53.256;8.198;2023-02-28T07:01:50;2.10;99.90
47162;DHT22;32921;53.256;8.198;2023-02-28T07:04:16;2.10;99.90
47162;DHT22;32921;53.256;8.198;2023-02-28T07:06:41;2.10;99.90
47162;DHT22;32921;53.256;8.198;2023-02-28T07:09:07;1.90;99.90
47162;DHT22;32921;53.256;8.198;2023-02-28T07:11:33;1.70;99.90
47162;DHT22;32921;53.256;8.198;2023-02-28T07:13:59;1.60;99.90
47162;DHT22;32921;53.256;8.198;2023-02-28T07:16:25;1.60;99.90
47162;DHT22;32921;53.256;8.198;2023-02-28T07:18:53;1.30;99.90
47162;DHT22;32921;53.256;8.198;2023-02-28T07:21:19;1.20;99.90
47162;DHT22;32921;53.256;8.198;2023-02-28T07:23:44;1.20;99.90
47162;DHT22;32921;53.256;8.198;2023-02-28T07:26:20;1.10;99.90
47162;DHT22;32921;53.256;8.198;2023-02-28T07:28:47;1.10;99.90
47162;DHT22;32921;53.256;8.198;2023-02-28T07:31:14;1.20;99.90
47162;DHT22;32921;53.256;8.198;2023-02-28T07:33:40;1.20;99.90
47162;DHT22;32921;53.256;8.198;2023-02-28T07:36:14;1.50;99.90
47162;DHT22;32921;53.256;8.198;2023-02-28T07:38:41;1.60;99.90
47162;DHT22;32921;53.256;8.198;2023-02-28T07:41:07;1.70;99.90
47162;DHT22;32921;53.256;8.198;2023-02-28T07:43:33;2.00;99.90
47162;DHT22;32921;53.256;8.198;2023-02-28T07:46:04;2.20;99.90
47162;DHT22;32921;53.256;8.198;2023-02-28T07:48:30;2.60;99.90
47162;DHT22;32921;53.256;8.198;2023-02-28T07:50:57;3.40;99.90
47162;DHT22;32921;53.256;8.198;2023-02-28T07:53:22;4.20;99.90
47162;DHT22;32921;53.256;8.198;2023-02-28T07:55:48;4.70;99.90
47162;DHT22;32921;53.256;8.198;2023-02-28T07:58:14;5.30;99.90
47162;DHT22;32921;53.256;8.198;2023-02-28T08:00:40;5.50;99.90
47162;DHT22;32921;53.256;8.198;2023-02-28T08:03:05;5.90;99.90
47162;DHT22;32921;53.256;8.198;2023-02-28T08:05:31;6.10;99.80
47162;DHT22;32921;53.256;8.198;2023-02-28T08:07:57;6.10;98.50
47162;DHT22;32921;53.256;8.198;2023-02-28T08:10:22;6.30;97.20
47162;DHT22;32921;53.256;8.198;2023-02-28T08:12:49;6.60;95.50
47162;DHT22;32921;53.256;8.198;2023-02-28T08:15:15;6.90;94.30
47162;DHT22;32921;53.256;8.198;2023-02-28T08:17:40;7.30;92.70
47162;DHT22;32921;53.256;8.198;2023-02-28T08:20:07;7.20;90.80
47162;DHT22;32921;53.256;8.198;2023-02-28T08:22:32;7.00;90.00
47162;DHT22;32921;53.256;8.198;2023-02-28T08:24:58;7.10;90.40
47162;DHT22;32921;53.256;8.198;2023-02-28T08:27:23;7.50;86.40
47162;DHT22;32921;53.256;8.198;2023-02-28T08:29:49;7.60;86.80
47162;DHT22;32921;53.256;8.198;2023-02-28T08:32:14;8.00;84.10
47162;DHT22;32921;53.256;8.198;2023-02-28T08:34:40;7.50;82.40
47162;DHT22;32921;53.256;8.198;2023-02-28T08:37:06;7.70;83.60
47162;DHT22;32921;53.256;8.198;2023-02-28T08:39:34;7.60;82.80
47162;DHT22;32921;53.256;8.198;2023-02-28T08:42:00;8.00;83.20
47162;DHT22;32921;53.256;8.198;2023-02-28T08:44:26;8.20;81.80
47162;DHT22;32921;53.256;8.198;2023-02-28T08:46:52;8.00;78.40
47162;DHT22;32921;53.256;8.198;2023-02-28T08:49:18;7.60;81.00
47162;DHT22;32921;53.256;8.198;2023-02-28T08:51:44;6.80;79.60
47162;DHT22;32921;53.256;8.198;2023-02-28T08:54:09;6.20;82.30
47162;DHT22;32921;53.256;8.198;2023-02-28T08:56:38;5.80;84.60
47162;DHT22;32921;53.256;8.198;2023-02-28T08:59:04;5.40;86.60
47162;DHT22;32921;53.256;8.198;2023-02-28T09:01:29;5.10;86.40
47162;DHT22;32921;53.256;8.198;2023-02-28T09:03:57;4.90;86.70
47162;DHT22;32921;53.256;8.198;2023-02-28T09:06:24;4.80;87.80
47162;DHT22;32921;53.256;8.198;2023-02-28T09:08:51;4.70;88.80
47162;DHT22;32921;53.256;8.198;2023-02-28T09:11:17;4.70;90.90
47162;DHT22;32921;53.256;8.198;2023-02-28T09:13:43;5.10;88.80
47162;DHT22;32921;53.256;8.198;2023-02-28T09:16:12;5.10;86.80
47162;DHT22;32921;53.256;8.198;2023-02-28T09:18:38;4.90;86.70
47162;DHT22;32921;53.256;8.198;2023-02-28T09:21:05;4.80;85.70
47162;DHT22;32921;53.256;8.198;2023-02-28T09:23:30;4.60;86.40
47162;DHT22;32921;53.256;8.198;2023-02-28T09:25:56;4.60;85.70
47162;DHT22;32921;53.256;8.198;2023-02-28T09:28:22;4.80;86.30
47162;DHT22;32921;53.256;8.198;2023-02-28T09:30:50;4.80;86.50
47162;DHT22;32921;53.256;8.198;2023-02-28T09:33:17;4.90;84.00
47162;DHT22;32921;53.256;8.198;2023-02-28T09:35:44;4.90;83.50
47162;DHT22;32921;53.256;8.198;2023-02-28T09:38:10;4.80;81.40
47162;DHT22;32921;53.256;8.198;2023-02-28T09:40:39;5.00;84.90
47162;DHT22;32921;53.256;8.198;2023-02-28T09:43:11;5.10;85.10
47162;DHT22;32921;53.256;8.198;2023-02-28T09:45:39;4.90;83.60
47162;DHT22;32921;53.256;8.198;2023-02-28T09:48:19;4.80;84.30
47162;DHT22;32921;53.256;8.198;2023-02-28T09:51:00;4.90;83.60
47162;DHT22;32921;53.256;8.198;2023-02-28T09:53:35;5.00;85.20
47162;DHT22;32921;53.256;8.198;2023-02-28T09:56:21;4.80;81.90
47162;DHT22;32921;53.256;8.198;2023-02-28T09:59:10;4.80;84.00
47162;DHT22;32921;53.256;8.198;2023-02-28T10:10:29;4.80;82.40
47162;DHT22;32921;53.256;8.198;2023-02-28T10:13:00;4.90;81.70
47162;DHT22;32921;53.256;8.198;2023-02-28T10:15:30;5.00;80.40
47162;DHT22;32921;53.256;8.198;2023-02-28T10:18:00;5.00;81.40
47162;DHT22;32921;53.256;8.198;2023-02-28T10:20:29;5.20;81.70
47162;DHT22;32921;53.256;8.198;2023-02-28T10:25:33;5.70;82.90
47162;DHT22;32921;53.256;8.198;2023-02-28T10:30:33;5.50;78.70
47162;DHT22;32921;53.256;8.198;2023-02-28T10:33:00;5.40;79.50
47162;DHT22;32921;53.256;8.198;2023-02-28T10:35:26;5.40;79.90
47162;DHT22;32921;53.256;8.198;2023-02-28T10:38:00;5.50;79.70
47162;DHT22;32921;53.256;8.198;2023-02-28T10:40:29;5.60;78.00
47162;DHT22;32921;53.256;8.198;2023-02-28T10:45:38;5.70;78.00
47162;DHT22;32921;53.256;8.198;2023-02-28T10:48:27;6.10;79.60
47162;DHT22;32921;53.256;8.198;2023-02-28T10:50:52;6.00;76.00
47162;DHT22;32921;53.256;8.198;2023-02-28T11:04:00;7.00;72.10
47162;DHT22;32921;53.256;8.198;2023-02-28T11:06:30;7.30;72.10
47162;DHT22;32921;53.256;8.198;2023-02-28T11:08:59;7.30;69.40
47162;DHT22;32921;53.256;8.198;2023-02-28T11:11:28;7.10;71.30
47162;DHT22;32921;53.256;8.198;2023-02-28T11:13:56;7.40;72.20
47162;DHT22;32921;53.256;8.198;2023-02-28T11:16:31;7.60;70.00
47162;DHT22;32921;53.256;8.198;2023-02-28T11:18:57;7.80;68.20
47162;DHT22;32921;53.256;8.198;2023-02-28T11:21:26;8.50;68.30
47162;DHT22;32921;53.256;8.198;2023-02-28T11:24:00;8.60;66.10
47162;DHT22;32921;53.256;8.198;2023-02-28T11:26:39;8.30;65.10
47162;DHT22;32921;53.256;8.198;2023-02-28T11:29:21;9.40;66.10
47162;DHT22;32921;53.256;8.198;2023-02-28T11:34:29;9.60;61.80
47162;DHT22;32921;53.256;8.198;2023-02-28T11:36:57;9.60;59.60
47162;DHT22;32921;53.256;8.198;2023-02-28T11:39:24;9.20;58.40
47162;DHT22;32921;53.256;8.198;2023-02-28T11:42:16;9.40;59.80
47162;DHT22;32921;53.256;8.198;2023-02-28T11:47:47;9.30;58.90
47162;DHT22;32921;53.256;8.198;2023-02-28T11:53:10;9.60;57.70
47162;DHT22;32921;53.256;8.198;2023-02-28T11:56:17;9.90;56.50
47162;DHT22;32921;53.256;8.198;2023-02-28T11:59:14;10.30;53.20
47162;DHT22;32921;53.256;8.198;2023-02-28T12:05:01;9.70;54.40
47162;DHT22;32921;53.256;8.198;2023-02-28T12:07:49;8.40;58.10
47162;DHT22;32921;53.256;8.198;2023-02-28T12:10:27;8.70;58.80
47162;DHT22;32921;53.256;8.198;2023-02-28T12:13:02;8.80;57.70
47162;DHT22;32921;53.256;8.198;2023-02-28T12:21:22;10.20;54.00
47162;DHT22;32921;53.256;8.198;2023-02-28T12:26:52;11.10;51.70
47162;DHT22;32921;53.256;8.198;2023-02-28T12:29:25;10.80;48.20
47162;DHT22;32921;53.256;8.198;2023-02-28T12:32:14;10.70;48.70
47162;DHT22;32921;53.256;8.198;2023-02-28T12:35:03;10.10;47.90
47162;DHT22;32921;53.256;8.198;2023-02-28T12:37:36;9.40;49.80
47162;DHT22;32921;53.256;8.198;2023-02-28T12:40:27;8.50;52.30
47162;DHT22;32921;53.256;8.198;2023-02-28T12:43:02;7.50;56.40
47162;DHT22;32921;53.256;8.198;2023-02-28T12:46:01;7.30;57.10
47162;DHT22;32921;53.256;8.198;2023-02-28T12:48:45;7.10;58.00
47162;DHT22;32921;53.256;8.198;2023-02-28T12:51:12;7.00;60.80
47162;DHT22;32921;53.256;8.198;2023-02-28T12:54:00;6.80;60.00
47162;DHT22;32921;53.256;8.198;2023-02-28T12:59:32;6.80;60.40
47162;DHT22;32921;53.256;8.198;2023-02-28T13:02:22;6.60;60.70
47162;DHT22;32921;53.256;8.198;2023-02-28T13:05:22;6.50;61.00
47162;DHT22;32921;53.256;8.198;2023-02-28T13:10:40;6.70;61.80
47162;DHT22;32921;53.256;8.198;2023-02-28T13:13:14;6.70;63.70
47162;DHT22;32921;53.256;8.198;2023-02-28T13:15:40;6.60;61.90
47162;DHT22;32921;53.256;8.198;2023-02-28T13:18:29;6.60;60.60
47162;DHT22;32921;53.256;8.198;2023-02-28T13:20:55;6.50;62.60
47162;DHT22;32921;53.256;8.198;2023-02-28T13:26:07;6.60;62.30
47162;DHT22;32921;53.256;8.198;2023-02-28T13:31:16;6.50;59.40
47162;DHT22;32921;53.256;8.198;2023-02-28T13:41:43;6.50;58.80
47162;DHT22;32921;53.256;8.198;2023-02-28T13:51:50;6.70;57.10
47162;DHT22;32921;53.256;8.198;2023-02-28T13:54:22;6.60;55.10
47162;DHT22;32921;53.256;8.198;2023-02-28T13:57:03;6.60;53.80
47162;DHT22;32921;53.256;8.198;2023-02-28T13:59:52;6.50;56.00
47162;DHT22;32921;53.256;8.198;2023-02-28T14:05:17;6.60;58.70
47162;DHT22;32921;53.256;8.198;2023-02-28T14:07:47;6.40;59.80
47162;DHT22;32921;53.256;8.198;2023-02-28T14:10:43;6.50;58.70
47162;DHT22;32921;53.256;8.198;2023-02-28T14:13:45;6.40;63.00
47162;DHT22;32921;53.256;8.198;2023-02-28T14:16:17;6.40;62.40
47162;DHT22;32921;53.256;8.198;2023-02-28T14:18:51;6.40;62.90
47162;DHT22;32921;53.256;8.198;2023-02-28T14:21:30;6.50;63.30
47162;DHT22;32921;53.256;8.198;2023-02-28T14:29:53;6.50;62.60
47162;DHT22;32921;53.256;8.198;2023-02-28T14:32:43;6.40;64.40
47162;DHT22;32921;53.256;8.198;2023-02-28T14:37:51;6.40;62.10
47162;DHT22;32921;53.256;8.198;2023-02-28T14:40:30;6.50;62.50
47162;DHT22;32921;53.256;8.198;2023-02-28T14:42:59;6.40;61.30
47162;DHT22;32921;53.256;8.198;2023-02-28T14:45:30;6.40;61.90
47162;DHT22;32921;53.256;8.198;2023-02-28T14:47:57;6.30;60.40
47162;DHT22;32921;53.256;8.198;2023-02-28T14:50:27;6.20;61.70
47162;DHT22;32921;53.256;8.198;2023-02-28T14:52:55;6.40;60.00
47162;DHT22;32921;53.256;8.198;2023-02-28T14:55:26;6.40;59.60
47162;DHT22;32921;53.256;8.198;2023-02-28T14:57:57;6.40;60.10
47162;DHT22;32921;53.256;8.198;2023-02-28T15:00:28;6.50;60.80
47162;DHT22;32921;53.256;8.198;2023-02-28T15:02:58;6.60;60.80
47162;DHT22;32921;53.256;8.198;2023-02-28T15:05:27;6.50;60.70
47162;DHT22;32921;53.256;8.198;2023-02-28T15:08:12;6.50;60.60
47162;DHT22;32921;53.256;8.198;2023-02-28T15:10:41;6.90;60.00
47162;DHT22;32921;53.256;8.198;2023-02-28T15:13:13;8.40;57.10
47162;DHT22;32921;53.256;8.198;2023-02-28T15:15:50;10.10;52.60
47162;DHT22;32921;53.256;8.198;2023-02-28T15:18:26;10.60;50.60
47162;DHT22;32921;53.256;8.198;2023-02-28T15:20:53;11.00;49.70
47162;DHT22;32921;53.256;8.198;2023-02-28T15:23:20;10.70;50.50
47162;DHT22;32921;53.256;8.198;2023-02-28T15:25:47;10.60;50.10
47162;DHT22;32921;53.256;8.198;2023-02-28T15:28:17;9.80;52.90
47162;DHT22;32921;53.256;8.198;2023-02-28T15:31:02;9.60;52.10
47162;DHT22;32921;53.256;8.198;2023-02-28T15:33:32;10.00;51.60
47162;DHT22;32921;53.256;8.198;2023-02-28T15:36:14;10.30;51.20
47162;DHT22;32921;53.256;8.198;2023-02-28T15:38:40;10.50;50.30
47162;DHT22;32921;53.256;8.198;2023-02-28T15:41:05;10.90;49.80
47162;DHT22;32921;53.256;8.198;2023-02-28T15:43:36;11.70;47.40
47162;DHT22;32921;53.256;8.198;2023-02-28T15:46:05;11.60;47.70
47162;DHT22;32921;53.256;8.198;2023-02-28T15:48:45;12.00;47.50
47162;DHT22;32921;53.256;8.198;2023-02-28T15:51:22;11.40;48.40
47162;DHT22;32921;53.256;8.198;2023-02-28T15:53:59;11.40;48.30
47162;DHT22;32921;53.256;8.198;2023-02-28T15:56:30;12.00;46.30
47162;DHT22;32921;53.256;8.198;2023-02-28T15:59:04;12.30;45.20
47162;DHT22;32921;53.256;8.198;2023-02-28T16:01:33;12.80;45.30
47162;DHT22;32921;53.256;8.198;2023-02-28T16:04:19;13.20;43.70
47162;DHT22;32921;53.256;8.198;2023-02-28T16:06:47;11.20;47.60
47162;DHT22;32921;53.256;8.198;2023-02-28T16:09:25;9.90;50.80
47162;DHT22;32921;53.256;8.198;2023-02-28T16:11:54;8.50;53.80
47162;DHT22;32921;53.256;8.198;2023-02-28T16:14:22;7.60;57.10
47162;DHT22;32921;53.256;8.198;2023-02-28T16:16:51;6.80;59.00
47162;DHT22;32921;53.256;8.198;2023-02-28T16:19:18;6.40;60.90
47162;DHT22;32921;53.256;8.198;2023-02-28T16:21:44;6.20;62.20
47162;DHT22;32921;53.256;8.198;2023-02-28T16:24:10;6.00;62.80
47162;DHT22;32921;53.256;8.198;2023-02-28T16:26:36;5.80;64.20
47162;DHT22;32921;53.256;8.198;2023-02-28T16:29:05;5.70;64.70
47162;DHT22;32921;53.256;8.198;2023-02-28T16:31:35;5.50;65.70
47162;DHT22;32921;53.256;8.198;2023-02-28T16:34:02;5.50;67.20
47162;DHT22;32921;53.256;8.198;2023-02-28T16:36:29;5.60;69.40
47162;DHT22;32921;53.256;8.198;2023-02-28T16:38:55;5.60;70.90
47162;DHT22;32921;53.256;8.198;2023-02-28T16:41:22;5.40;72.10
47162;DHT22;32921;53.256;8.198;2023-02-28T16:43:52;5.10;74.30
47162;DHT22;32921;53.256;8.198;2023-02-28T16:46:19;4.90;77.00
47162;DHT22;32921;53.256;8.198;2023-02-28T16:48:46;4.60;77.20
47162;DHT22;32921;53.256;8.198;2023-02-28T16:51:15;4.30;79.00
47162;DHT22;32921;53.256;8.198;2023-02-28T16:53:42;4.40;80.60
47162;DHT22;32921;53.256;8.198;2023-02-28T16:56:16;4.30;80.60
47162;DHT22;32921;53.256;8.198;2023-02-28T16:58:43;4.10;82.10
47162;DHT22;32921;53.256;8.198;2023-02-28T17:01:08;4.00;83.00
47162;DHT22;32921;53.256;8.198;2023-02-28T17:03:34;4.00;82.90
47162;DHT22;32921;53.256;8.198;2023-02-28T17:06:02;3.70;83.10
47162;DHT22;32921;53.256;8.198;2023-02-28T17:08:28;3.60;85.50
47162;DHT22;32921;53.256;8.198;2023-02-28T17:10:55;3.50;85.70
47162;DHT22;32921;53.256;8.198;2023-02-28T17:13:20;3.30;86.10
47162;DHT22;32921;53.256;8.198;2023-02-28T17:15:46;3.00;87.20
47162;DHT22;32921;53.256;8.198;2023-02-28T17:18:15;3.10;89.20
47162;DHT22;32921;53.256;8.198;2023-02-28T17:20:41;2.80;90.10
47162;DHT22;32921;53.256;8.198;2023-02-28T17:23:07;2.50;90.10
47162;DHT22;32921;53.256;8.198;2023-02-28T17:25:33;2.30;90.80
47162;DHT22;32921;53.256;8.198;2023-02-28T17:27:59;2.00;91.40
47162;DHT22;32921;53.256;8.198;2023-02-28T17:30:26;1.80;91.80
47162;DHT22;32921;53.256;8.198;2023-02-28T17:32:55;1.50;92.20
47162;DHT22;32921;53.256;8.198;2023-02-28T17:35:22;1.30;92.90
47162;DHT22;32921;53.256;8.198;2023-02-28T17:37:47;1.20;93.60
47162;DHT22;32921;53.256;8.198;2023-02-28T17:40:18;1.10;94.70
47162;DHT22;32921;53.256;8.198;2023-02-28T17:42:44;1.00;96.20
47162;DHT22;32921;53.256;8.198;2023-02-28T17:45:12;1.10;98.40